sensor_id;sensor_type;location;lat;lon;timestamp;pressure;altitude;pressure_sealevel;temperature;humidity
66486;BME280;53303;47.476;8.084;2023-04-30T00:01:13;95403.63;;;21.71;44.27
66486;BME280;53303;47.476;8.084;2023-04-30T00:03:38;95383.25;;;21.62;44.51
66486;BME280;53303;47.476;8.084;2023-04-30T00:06:04;95381.97;;;21.63;44.43
66486;BME280;53303;47.476;8.084;2023-04-30T00:08:31;95386.50;;;21.66;44.41
66486;BME280;53303;47.476;8.084;2023-04-30T00:10:57;95394.53;;;21.70;44.29
66486;BME280;53303;47.476;8.084;2023-04-30T00:13:22;95379.19;;;21.63;44.33
66486;BME280;53303;47.476;8.084;2023-04-30T00:15:47;95394.03;;;21.72;44.12
66486;BME280;53303;47.476;8.084;2023-04-30T00:18:13;95380.19;;;21.66;44.24
66486;BME280;53303;47.476;8.084;2023-04-30T00:20:41;95387.25;;;21.67;44.50
66486;BME280;53303;47.476;8.084;2023-04-30T00:23:08;95381.69;;;21.67;44.30
66486;BME280;53303;47.476;8.084;2023-04-30T00:25:34;95374.16;;;21.62;44.20
66486;BME280;53303;47.476;8.084;2023-04-30T00:28:01;95367.34;;;21.63;44.07
66486;BME280;53303;47.476;8.084;2023-04-30T00:30:27;95380.66;;;21.70;44.20
66486;BME280;53303;47.476;8.084;2023-04-30T00:32:54;95374.16;;;21.62;44.13
66486;BME280;53303;47.476;8.084;2023-04-30T00:35:20;95370.13;;;21.63;44.38
66486;BME280;53303;47.476;8.084;2023-04-30T00:37:50;95380.44;;;21.68;44.22
66486;BME280;53303;47.476;8.084;2023-04-30T00:40:15;95385.47;;;21.70;44.32
66486;BME280;53303;47.476;8.084;2023-04-30T00:42:41;95378.16;;;21.66;44.17
66486;BME280;53303;47.476;8.084;2023-04-30T00:45:09;95371.16;;;21.60;44.41
66486;BME280;53303;47.476;8.084;2023-04-30T00:47:34;95375.09;;;21.70;44.16
66486;BME280;53303;47.476;8.084;2023-04-30T00:50:00;95373.06;;;21.71;44.14
66486;BME280;53303;47.476;8.084;2023-04-30T00:52:28;95364.28;;;21.66;44.16
66486;BME280;53303;47.476;8.084;2023-04-30T00:54:55;95362.03;;;21.65;44.11
66486;BME280;53303;47.476;8.084;2023-04-30T00:57:21;95372.31;;;21.70;44.31
66486;BME280;53303;47.476;8.084;2023-04-30T00:59:47;95357.91;;;21.72;44.17
66486;BME280;53303;47.476;8.084;2023-04-30T01:02:16;95349.94;;;21.62;44.17
66486;BME280;53303;47.476;8.084;2023-04-30T01:04:44;95352.94;;;21.64;44.31
66486;BME280;53303;47.476;8.084;2023-04-30T01:07:12;95354.69;;;21.67;44.07
66486;BME280;53303;47.476;8.084;2023-04-30T01:09:40;95357.69;;;21.70;44.28
66486;BME280;53303;47.476;8.084;2023-04-30T01:12:12;95340.56;;;21.65;44.41
66486;BME280;53303;47.476;8.084;2023-04-30T01:17:17;95347.41;;;21.64;43.86
66486;BME280;53303;47.476;8.084;2023-04-30T01:19:46;95350.63;;;21.68;44.46
66486;BME280;53303;47.476;8.084;2023-04-30T01:28:01;95339.81;;;21.65;44.33
66486;BME280;53303;47.476;8.084;2023-04-30T01:30:31;95340.03;;;21.67;44.32
66486;BME280;53303;47.476;8.084;2023-04-30T01:32:59;95324.00;;;21.54;44.21
66486;BME280;53303;47.476;8.084;2023-04-30T01:38:17;95340.63;;;21.60;44.06
66486;BME280;53303;47.476;8.084;2023-04-30T01:40:55;95344.31;;;21.68;44.15
66486;BME280;53303;47.476;8.084;2023-04-30T01:43:38;95345.59;;;21.67;44.43
66486;BME280;53303;47.476;8.084;2023-04-30T01:57:12;95343.09;;;21.63;44.25
66486;BME280;53303;47.476;8.084;2023-04-30T01:59:44;95341.06;;;21.64;44.17
66486;BME280;53303;47.476;8.084;2023-04-30T02:02:10;95342.59;;;21.65;44.36
66486;BME280;53303;47.476;8.084;2023-04-30T02:04:36;95327.97;;;21.64;44.32
66486;BME280;53303;47.476;8.084;2023-04-30T02:07:01;95333.50;;;21.64;44.29
66486;BME280;53303;47.476;8.084;2023-04-30T02:09:26;95329.50;;;21.60;44.14
66486;BME280;53303;47.476;8.084;2023-04-30T02:11:54;95333.56;;;21.59;44.20
66486;BME280;53303;47.476;8.084;2023-04-30T02:14:22;95321.97;;;21.55;44.15
66486;BME280;53303;47.476;8.084;2023-04-30T02:16:49;95338.13;;;21.56;44.19
66486;BME280;53303;47.476;8.084;2023-04-30T02:19:15;95317.53;;;21.46;44.39
66486;BME280;53303;47.476;8.084;2023-04-30T02:21:43;95337.59;;;21.58;44.39
66486;BME280;53303;47.476;8.084;2023-04-30T02:24:08;95343.84;;;21.64;44.33
66486;BME280;53303;47.476;8.084;2023-04-30T02:26:35;95345.34;;;21.65;44.40
66486;BME280;53303;47.476;8.084;2023-04-30T02:29:03;95334.09;;;21.57;44.36
66486;BME280;53303;47.476;8.084;2023-04-30T02:31:29;95328.53;;;21.57;44.22
66486;BME280;53303;47.476;8.084;2023-04-30T02:36:20;95327.47;;;21.60;44.51
66486;BME280;53303;47.476;8.084;2023-04-30T02:38:45;95324.00;;;21.54;44.52
66486;BME280;53303;47.476;8.084;2023-04-30T02:41:13;95323.22;;;21.59;44.27
66486;BME280;53303;47.476;8.084;2023-04-30T02:43:43;95328.53;;;21.57;44.06
66486;BME280;53303;47.476;8.084;2023-04-30T02:46:10;95311.66;;;21.55;44.27
66486;BME280;53303;47.476;8.084;2023-04-30T02:48:36;95329.44;;;21.65;44.24
66486;BME280;53303;47.476;8.084;2023-04-30T02:51:04;95319.69;;;21.59;44.25
66486;BME280;53303;47.476;8.084;2023-04-30T02:53:31;95313.44;;;21.53;44.28
66486;BME280;53303;47.476;8.084;2023-04-30T02:55:57;95324.69;;;21.60;44.26
66486;BME280;53303;47.476;8.084;2023-04-30T02:58:23;95322.91;;;21.63;44.26
66486;BME280;53303;47.476;8.084;2023-04-30T03:00:48;95326.44;;;21.63;44.28
66486;BME280;53303;47.476;8.084;2023-04-30T03:03:14;95318.91;;;21.58;44.61
66486;BME280;53303;47.476;8.084;2023-04-30T03:05:42;95324.41;;;21.64;44.49
66486;BME280;53303;47.476;8.084;2023-04-30T03:08:10;95312.63;;;21.58;44.39
66486;BME280;53303;47.476;8.084;2023-04-30T03:10:40;95314.88;;;21.59;44.54
66486;BME280;53303;47.476;8.084;2023-04-30T03:13:06;95321.41;;;21.62;44.32
66486;BME280;53303;47.476;8.084;2023-04-30T03:15:34;95323.44;;;21.61;44.33
66486;BME280;53303;47.476;8.084;2023-04-30T03:18:01;95325.41;;;21.66;44.31
66486;BME280;53303;47.476;8.084;2023-04-30T03:20:34;95327.97;;;21.64;44.31
66486;BME280;53303;47.476;8.084;2023-04-30T03:22:59;95323.94;;;21.60;44.26
66486;BME280;53303;47.476;8.084;2023-04-30T03:25:25;95326.22;;;21.61;44.08
66486;BME280;53303;47.476;8.084;2023-04-30T03:27:52;95322.69;;;21.61;44.45
66486;BME280;53303;47.476;8.084;2023-04-30T03:30:20;95323.16;;;21.65;44.36
66486;BME280;53303;47.476;8.084;2023-04-30T03:32:48;95315.81;;;21.67;44.17
66486;BME280;53303;47.476;8.084;2023-04-30T03:35:17;95308.03;;;21.60;44.34
66486;BME280;53303;47.476;8.084;2023-04-30T03:37:44;95310.00;;;21.65;44.22
66486;BME280;53303;47.476;8.084;2023-04-30T03:40:10;95303.25;;;21.61;44.12
66486;BME280;53303;47.476;8.084;2023-04-30T03:42:35;95304.00;;;21.61;44.11
66486;BME280;53303;47.476;8.084;2023-04-30T03:45:08;95302.47;;;21.60;44.06
66486;BME280;53303;47.476;8.084;2023-04-30T03:47:35;95318.03;;;21.69;44.26
66486;BME280;53303;47.476;8.084;2023-04-30T03:50:05;95310.00;;;21.65;44.41
66486;BME280;53303;47.476;8.084;2023-04-30T03:54:57;95314.81;;;21.65;44.11
66486;BME280;53303;47.476;8.084;2023-04-30T03:57:25;95311.59;;;21.61;44.21
66486;BME280;53303;47.476;8.084;2023-04-30T03:59:56;95318.59;;;21.67;44.38
66486;BME280;53303;47.476;8.084;2023-04-30T04:02:22;95311.53;;;21.66;44.31
66486;BME280;53303;47.476;8.084;2023-04-30T04:04:47;95309.03;;;21.63;44.37
66486;BME280;53303;47.476;8.084;2023-04-30T04:07:15;95308.75;;;21.66;44.29
66486;BME280;53303;47.476;8.084;2023-04-30T04:09:41;95315.03;;;21.67;44.23
66486;BME280;53303;47.476;8.084;2023-04-30T04:12:06;95315.81;;;21.67;44.35
66486;BME280;53303;47.476;8.084;2023-04-30T04:14:35;95318.59;;;21.67;44.15
66486;BME280;53303;47.476;8.084;2023-04-30T04:17:02;95318.63;;;21.62;44.33
66486;BME280;53303;47.476;8.084;2023-04-30T04:19:30;95307.81;;;21.58;44.21
66486;BME280;53303;47.476;8.084;2023-04-30T04:21:57;95314.31;;;21.66;44.30
66486;BME280;53303;47.476;8.084;2023-04-30T04:24:24;95316.06;;;21.64;44.35
66486;BME280;53303;47.476;8.084;2023-04-30T04:26:51;95321.59;;;21.70;44.27
66486;BME280;53303;47.476;8.084;2023-04-30T04:29:20;95314.06;;;21.64;44.17
66486;BME280;53303;47.476;8.084;2023-04-30T04:31:45;95310.00;;;21.65;44.27
66486;BME280;53303;47.476;8.084;2023-04-30T04:34:13;95309.03;;;21.63;44.16
66486;BME280;53303;47.476;8.084;2023-04-30T04:36:38;95302.97;;;21.64;43.83
66486;BME280;53303;47.476;8.084;2023-04-30T04:39:04;95308.97;;;21.68;44.17
66486;BME280;53303;47.476;8.084;2023-04-30T04:41:31;95304.22;;;21.63;44.12
66486;BME280;53303;47.476;8.084;2023-04-30T04:44:05;95316.63;;;21.62;44.05
66486;BME280;53303;47.476;8.084;2023-04-30T04:46:34;95323.09;;;21.71;44.05
66486;BME280;53303;47.476;8.084;2023-04-30T04:48:59;95310.28;;;21.62;44.29
66486;BME280;53303;47.476;8.084;2023-04-30T04:51:27;95320.31;;;21.71;44.20
66486;BME280;53303;47.476;8.084;2023-04-30T04:53:54;95306.78;;;21.61;44.14
66486;BME280;53303;47.476;8.084;2023-04-30T04:56:22;95289.72;;;21.52;43.99
66486;BME280;53303;47.476;8.084;2023-04-30T04:58:48;95322.34;;;21.70;44.09
66486;BME280;53303;47.476;8.084;2023-04-30T05:01:15;95307.00;;;21.63;44.41
66486;BME280;53303;47.476;8.084;2023-04-30T05:03:41;95315.53;;;21.71;44.47
66486;BME280;53303;47.476;8.084;2023-04-30T05:06:06;95309.03;;;21.63;44.25
66486;BME280;53303;47.476;8.084;2023-04-30T05:08:32;95314.06;;;21.64;44.29
66486;BME280;53303;47.476;8.084;2023-04-30T05:10:57;95313.03;;;21.67;44.24
66486;BME280;53303;47.476;8.084;2023-04-30T05:13:28;95310.53;;;21.64;44.48
66486;BME280;53303;47.476;8.084;2023-04-30T05:15:54;95307.75;;;21.64;44.29
66486;BME280;53303;47.476;8.084;2023-04-30T05:18:19;95317.53;;;21.71;44.26
66486;BME280;53303;47.476;8.084;2023-04-30T05:20:45;95317.31;;;21.68;44.49
66486;BME280;53303;47.476;8.084;2023-04-30T05:23:12;95313.84;;;21.62;44.25
66486;BME280;53303;47.476;8.084;2023-04-30T05:25:41;95323.09;;;21.71;44.40
66486;BME280;53303;47.476;8.084;2023-04-30T05:28:08;95300.25;;;21.59;44.41
66486;BME280;53303;47.476;8.084;2023-04-30T05:30:34;95318.03;;;21.69;44.64
66486;BME280;53303;47.476;8.084;2023-04-30T05:33:02;95315.53;;;21.71;44.37
66486;BME280;53303;47.476;8.084;2023-04-30T05:35:27;95310.00;;;21.65;44.42
66486;BME280;53303;47.476;8.084;2023-04-30T05:37:56;95312.78;;;21.65;44.30
66486;BME280;53303;47.476;8.084;2023-04-30T05:40:24;95317.53;;;21.71;44.29
66486;BME280;53303;47.476;8.084;2023-04-30T05:42:50;95314.22;;;21.72;44.12
66486;BME280;53303;47.476;8.084;2023-04-30T05:45:15;95310.25;;;21.67;44.22
66486;BME280;53303;47.476;8.084;2023-04-30T05:47:43;95322.56;;;21.72;44.21
66486;BME280;53303;47.476;8.084;2023-04-30T05:50:13;95304.22;;;21.63;44.58
66486;BME280;53303;47.476;8.084;2023-04-30T05:52:41;95323.31;;;21.73;44.21
66486;BME280;53303;47.476;8.084;2023-04-30T05:55:09;95317.00;;;21.72;44.21
66486;BME280;53303;47.476;8.084;2023-04-30T05:57:35;95309.78;;;21.63;44.25
66486;BME280;53303;47.476;8.084;2023-04-30T06:00:01;95308.22;;;21.68;44.11
66486;BME280;53303;47.476;8.084;2023-04-30T06:02:26;95313.03;;;21.67;44.28
66486;BME280;53303;47.476;8.084;2023-04-30T06:04:57;95318.53;;;21.73;44.23
66486;BME280;53303;47.476;8.084;2023-04-30T06:07:22;95323.09;;;21.71;44.28
66486;BME280;53303;47.476;8.084;2023-04-30T06:09:50;95306.78;;;21.61;44.29
66486;BME280;53303;47.476;8.084;2023-04-30T06:12:15;95306.25;;;21.63;44.23
66486;BME280;53303;47.476;8.084;2023-04-30T06:14:40;95313.56;;;21.66;44.28
66486;BME280;53303;47.476;8.084;2023-04-30T06:17:09;95312.78;;;21.65;44.41
66486;BME280;53303;47.476;8.084;2023-04-30T06:19:34;95318.81;;;21.70;44.46
66486;BME280;53303;47.476;8.084;2023-04-30T06:22:03;95304.44;;;21.65;44.22
66486;BME280;53303;47.476;8.084;2023-04-30T06:24:30;95308.00;;;21.66;44.15
66486;BME280;53303;47.476;8.084;2023-04-30T06:26:58;95320.53;;;21.73;44.08
66486;BME280;53303;47.476;8.084;2023-04-30T06:29:26;95320.31;;;21.71;44.16
66486;BME280;53303;47.476;8.084;2023-04-30T06:31:54;95331.63;;;21.73;44.18
66486;BME280;53303;47.476;8.084;2023-04-30T06:34:22;95319.28;;;21.74;44.23
66486;BME280;53303;47.476;8.084;2023-04-30T06:36:52;95310.53;;;21.64;43.93
66486;BME280;53303;47.476;8.084;2023-04-30T06:39:17;95323.31;;;21.73;43.69
66486;BME280;53303;47.476;8.084;2023-04-30T06:41:43;95320.31;;;21.71;43.16
66486;BME280;53303;47.476;8.084;2023-04-30T06:44:11;95315.34;;;21.63;43.53
66486;BME280;53303;47.476;8.084;2023-04-30T06:46:37;95311.53;;;21.66;43.41
66486;BME280;53303;47.476;8.084;2023-04-30T06:49:05;95314.53;;;21.68;43.54
66486;BME280;53303;47.476;8.084;2023-04-30T06:51:32;95293.47;;;21.54;43.59
66486;BME280;53303;47.476;8.084;2023-04-30T06:53:58;95320.31;;;21.71;43.50
66486;BME280;53303;47.476;8.084;2023-04-30T06:56:23;95307.75;;;21.64;43.50
66486;BME280;53303;47.476;8.084;2023-04-30T06:58:49;95316.03;;;21.70;43.56
66486;BME280;53303;47.476;8.084;2023-04-30T07:01:16;95312.50;;;21.69;43.77
66486;BME280;53303;47.476;8.084;2023-04-30T07:03:44;95304.97;;;21.64;43.48
66486;BME280;53303;47.476;8.084;2023-04-30T07:06:12;95296.03;;;21.52;43.90
66486;BME280;53303;47.476;8.084;2023-04-30T07:08:40;95307.28;;;21.60;43.67
66486;BME280;53303;47.476;8.084;2023-04-30T07:11:05;95309.03;;;21.63;43.75
66486;BME280;53303;47.476;8.084;2023-04-30T07:13:33;95314.88;;;21.59;43.68
66486;BME280;53303;47.476;8.084;2023-04-30T07:15:59;95311.59;;;21.61;43.93
66486;BME280;53303;47.476;8.084;2023-04-30T07:18:24;95314.59;;;21.63;43.68
66486;BME280;53303;47.476;8.084;2023-04-30T07:20:49;95321.13;;;21.65;43.80
66486;BME280;53303;47.476;8.084;2023-04-30T07:23:15;95304.53;;;21.60;43.69
66486;BME280;53303;47.476;8.084;2023-04-30T07:25:43;95307.75;;;21.64;43.81
66486;BME280;53303;47.476;8.084;2023-04-30T07:28:08;95315.56;;;21.65;43.77
66486;BME280;53303;47.476;8.084;2023-04-30T07:30:33;95310.81;;;21.60;44.11
66486;BME280;53303;47.476;8.084;2023-04-30T07:33:07;95304.06;;;21.56;44.17
66486;BME280;53303;47.476;8.084;2023-04-30T07:35:35;95318.63;;;21.62;44.10
66486;BME280;53303;47.476;8.084;2023-04-30T07:38:02;95322.41;;;21.64;44.19
66486;BME280;53303;47.476;8.084;2023-04-30T07:40:29;95311.34;;;21.59;43.94
66486;BME280;53303;47.476;8.084;2023-04-30T07:42:57;95326.97;;;21.62;43.87
66486;BME280;53303;47.476;8.084;2023-04-30T07:45:27;95322.41;;;21.64;44.04
66486;BME280;53303;47.476;8.084;2023-04-30T07:47:53;95316.13;;;21.58;43.84
66486;BME280;53303;47.476;8.084;2023-04-30T07:50:18;95318.16;;;21.58;44.07
66486;BME280;53303;47.476;8.084;2023-04-30T07:52:44;95316.91;;;21.59;43.84
66486;BME280;53303;47.476;8.084;2023-04-30T07:55:11;95323.66;;;21.63;43.98
66486;BME280;53303;47.476;8.084;2023-04-30T07:57:37;95320.44;;;21.59;44.00
66486;BME280;53303;47.476;8.084;2023-04-30T08:00:02;95327.25;;;21.58;43.93
66486;BME280;53303;47.476;8.084;2023-04-30T08:02:30;95313.13;;;21.56;44.03
66486;BME280;53303;47.476;8.084;2023-04-30T08:04:56;95330.25;;;21.60;43.76
66486;BME280;53303;47.476;8.084;2023-04-30T08:07:21;95324.94;;;21.62;44.04
66486;BME280;53303;47.476;8.084;2023-04-30T08:09:49;95324.97;;;21.57;44.06
66486;BME280;53303;47.476;8.084;2023-04-30T08:12:15;95319.97;;;21.55;44.21
66486;BME280;53303;47.476;8.084;2023-04-30T08:14:41;95322.50;;;21.53;44.19
66486;BME280;53303;47.476;8.084;2023-04-30T08:17:06;95338.84;;;21.62;44.22
66486;BME280;53303;47.476;8.084;2023-04-30T08:19:34;95331.81;;;21.56;44.35
66486;BME280;53303;47.476;8.084;2023-04-30T08:21:59;95326.56;;;21.52;44.16
66486;BME280;53303;47.476;8.084;2023-04-30T08:24:25;95320.56;;;21.48;43.99
66486;BME280;53303;47.476;8.084;2023-04-30T08:26:55;95329.06;;;21.56;44.15
66486;BME280;53303;47.476;8.084;2023-04-30T08:29:24;95326.56;;;21.52;44.25
66486;BME280;53303;47.476;8.084;2023-04-30T08:31:50;95328.81;;;21.54;44.11
66486;BME280;53303;47.476;8.084;2023-04-30T08:34:17;95335.28;;;21.62;44.26
66486;BME280;53303;47.476;8.084;2023-04-30T08:36:43;95333.78;;;21.61;44.18
66486;BME280;53303;47.476;8.084;2023-04-30T08:39:08;95326.03;;;21.54;44.31
66486;BME280;53303;47.476;8.084;2023-04-30T08:41:37;95331.09;;;21.55;44.28
66486;BME280;53303;47.476;8.084;2023-04-30T08:44:06;95336.28;;;21.64;44.13
66486;BME280;53303;47.476;8.084;2023-04-30T08:46:32;95332.28;;;21.60;44.24
66486;BME280;53303;47.476;8.084;2023-04-30T08:48:59;95335.34;;;21.56;44.17
66486;BME280;53303;47.476;8.084;2023-04-30T08:51:26;95342.59;;;21.65;44.15
66486;BME280;53303;47.476;8.084;2023-04-30T08:53:53;95333.03;;;21.60;44.24
66486;BME280;53303;47.476;8.084;2023-04-30T08:56:19;95334.25;;;21.65;44.35
66486;BME280;53303;47.476;8.084;2023-04-30T08:58:47;95325.53;;;21.55;44.22
66486;BME280;53303;47.476;8.084;2023-04-30T09:01:13;95328.25;;;21.61;44.37
66486;BME280;53303;47.476;8.084;2023-04-30T09:03:39;95315.41;;;21.58;44.20
66486;BME280;53303;47.476;8.084;2023-04-30T09:06:05;95314.13;;;21.59;44.31
66486;BME280;53303;47.476;8.084;2023-04-30T09:08:49;95318.63;;;21.62;44.13
66486;BME280;53303;47.476;8.084;2023-04-30T09:13:50;95293.94;;;21.58;44.53
66486;BME280;53303;47.476;8.084;2023-04-30T09:16:20;95305.50;;;21.62;44.26
66486;BME280;53303;47.476;8.084;2023-04-30T09:18:46;95311.00;;;21.68;44.24
66486;BME280;53303;47.476;8.084;2023-04-30T09:21:14;95299.41;;;21.64;44.13
66486;BME280;53303;47.476;8.084;2023-04-30T09:24:00;95314.31;;;21.66;44.35
66486;BME280;53303;47.476;8.084;2023-04-30T09:26:36;95301.22;;;21.61;44.04
66486;BME280;53303;47.476;8.084;2023-04-30T09:29:02;95307.72;;;21.70;44.25
66486;BME280;53303;47.476;8.084;2023-04-30T09:31:33;95307.72;;;21.70;44.33
66486;BME280;53303;47.476;8.084;2023-04-30T09:33:59;95302.75;;;21.62;44.13
66486;BME280;53303;47.476;8.084;2023-04-30T09:36:24;95308.75;;;21.66;44.33
66486;BME280;53303;47.476;8.084;2023-04-30T09:38:52;95299.66;;;21.66;44.21
66486;BME280;53303;47.476;8.084;2023-04-30T09:41:22;95310.72;;;21.72;44.31
66486;BME280;53303;47.476;8.084;2023-04-30T09:43:50;95299.66;;;21.66;44.44
66486;BME280;53303;47.476;8.084;2023-04-30T09:46:18;95301.09;;;21.73;44.43
66486;BME280;53303;47.476;8.084;2023-04-30T09:48:46;95301.88;;;21.73;44.46
66486;BME280;53303;47.476;8.084;2023-04-30T09:51:14;95299.59;;;21.72;44.20
66486;BME280;53303;47.476;8.084;2023-04-30T09:53:41;95291.78;;;21.70;44.42
66486;BME280;53303;47.476;8.084;2023-04-30T09:56:11;95301.63;;;21.71;44.15
66486;BME280;53303;47.476;8.084;2023-04-30T09:58:42;95296.53;;;21.75;44.13
66486;BME280;53303;47.476;8.084;2023-04-30T10:01:10;95298.91;;;21.65;44.44
66486;BME280;53303;47.476;8.084;2023-04-30T10:03:39;95307.66;;;21.75;44.14
66486;BME280;53303;47.476;8.084;2023-04-30T10:06:05;95299.31;;;21.75;44.24
66486;BME280;53303;47.476;8.084;2023-04-30T10:08:48;95307.94;;;21.72;44.41
66486;BME280;53303;47.476;8.084;2023-04-30T10:11:20;95299.84;;;21.74;44.29
66486;BME280;53303;47.476;8.084;2023-04-30T10:13:59;95303.13;;;21.72;44.31
66486;BME280;53303;47.476;8.084;2023-04-30T10:19:04;95293.00;;;21.75;44.33
66486;BME280;53303;47.476;8.084;2023-04-30T10:21:33;95283.69;;;21.72;44.42
66486;BME280;53303;47.476;8.084;2023-04-30T10:24:02;95287.69;;;21.77;44.18
66486;BME280;53303;47.476;8.084;2023-04-30T10:26:30;95272.66;;;21.66;44.30
66486;BME280;53303;47.476;8.084;2023-04-30T10:28:59;95294.72;;;21.78;44.35
66486;BME280;53303;47.476;8.084;2023-04-30T10:31:25;95289.19;;;21.78;44.33
66486;BME280;53303;47.476;8.084;2023-04-30T10:37:04;95284.13;;;21.76;44.16
66486;BME280;53303;47.476;8.084;2023-04-30T10:39:34;95280.63;;;21.76;44.68
66486;BME280;53303;47.476;8.084;2023-04-30T10:42:03;95263.63;;;21.60;44.09
66486;BME280;53303;47.476;8.084;2023-04-30T10:44:33;95282.66;;;21.75;44.24
66486;BME280;53303;47.476;8.084;2023-04-30T10:47:06;95285.13;;;21.79;44.29
66486;BME280;53303;47.476;8.084;2023-04-30T10:49:32;95269.06;;;21.72;44.39
66486;BME280;53303;47.476;8.084;2023-04-30T10:52:06;95280.63;;;21.76;44.30
66486;BME280;53303;47.476;8.084;2023-04-30T10:54:35;95280.31;;;21.79;44.41
66486;BME280;53303;47.476;8.084;2023-04-30T10:59:41;95267.25;;;21.74;44.35
66486;BME280;53303;47.476;8.084;2023-04-30T11:02:09;95271.25;;;21.79;44.16
66486;BME280;53303;47.476;8.084;2023-04-30T11:05:07;95269.50;;;21.76;44.53
66486;BME280;53303;47.476;8.084;2023-04-30T11:07:35;95260.22;;;21.73;44.54
66486;BME280;53303;47.476;8.084;2023-04-30T11:10:01;95268.47;;;21.79;44.20
66486;BME280;53303;47.476;8.084;2023-04-30T11:12:29;95264.19;;;21.78;44.24
66486;BME280;53303;47.476;8.084;2023-04-30T11:15:16;95262.47;;;21.75;44.24
66486;BME280;53303;47.476;8.084;2023-04-30T11:17:49;95268.69;;;21.81;44.20
66486;BME280;53303;47.476;8.084;2023-04-30T11:20:20;95269.97;;;21.80;44.10
66486;BME280;53303;47.476;8.084;2023-04-30T11:23:07;95273.81;;;21.77;44.32
66486;BME280;53303;47.476;8.084;2023-04-30T11:25:43;95263.66;;;21.79;44.10
66486;BME280;53303;47.476;8.084;2023-04-30T11:28:14;95260.13;;;21.79;44.12
66486;BME280;53303;47.476;8.084;2023-04-30T11:30:51;95254.34;;;21.77;44.19
66486;BME280;53303;47.476;8.084;2023-04-30T11:33:20;95260.66;;;21.77;44.25
66486;BME280;53303;47.476;8.084;2023-04-30T11:35:49;95253.00;;;21.83;44.28
66486;BME280;53303;47.476;8.084;2023-04-30T11:38:23;95244.50;;;21.76;44.05
66486;BME280;53303;47.476;8.084;2023-04-30T11:40:52;95254.59;;;21.79;44.25
66486;BME280;53303;47.476;8.084;2023-04-30T11:43:28;95253.00;;;21.83;43.92
66486;BME280;53303;47.476;8.084;2023-04-30T11:46:15;95226.47;;;21.63;44.24
66486;BME280;53303;47.476;8.084;2023-04-30T11:48:46;95236.09;;;21.81;44.09
66486;BME280;53303;47.476;8.084;2023-04-30T11:51:20;95246.41;;;21.86;44.20
66486;BME280;53303;47.476;8.084;2023-04-30T11:53:51;95239.41;;;21.80;44.17
66486;BME280;53303;47.476;8.084;2023-04-30T11:56:23;95250.69;;;21.88;44.12
66486;BME280;53303;47.476;8.084;2023-04-30T11:58:54;95246.91;;;21.85;44.31
66486;BME280;53303;47.476;8.084;2023-04-30T12:01:26;95237.94;;;21.79;44.16
66486;BME280;53303;47.476;8.084;2023-04-30T12:03:55;95243.19;;;21.82;44.23
66486;BME280;53303;47.476;8.084;2023-04-30T12:06:23;95242.66;;;21.84;43.99
66486;BME280;53303;47.476;8.084;2023-04-30T12:08:54;95251.22;;;21.86;44.04
66486;BME280;53303;47.476;8.084;2023-04-30T12:11:27;95258.25;;;21.87;44.19
66486;BME280;53303;47.476;8.084;2023-04-30T12:14:09;95260.59;;;21.83;44.18
66486;BME280;53303;47.476;8.084;2023-04-30T12:16:46;95239.72;;;21.76;44.34
66486;BME280;53303;47.476;8.084;2023-04-30T12:19:15;95235.88;;;21.79;44.17
66486;BME280;53303;47.476;8.084;2023-04-30T12:21:44;95249.69;;;21.85;44.00
66486;BME280;53303;47.476;8.084;2023-04-30T12:24:19;95247.69;;;21.85;43.94
66486;BME280;53303;47.476;8.084;2023-04-30T12:26:45;95240.69;;;21.79;43.96
66486;BME280;53303;47.476;8.084;2023-04-30T12:29:14;95244.16;;;21.85;43.95
66486;BME280;53303;47.476;8.084;2023-04-30T12:31:40;95228.38;;;21.74;43.82
66486;BME280;53303;47.476;8.084;2023-04-30T12:34:09;95239.88;;;21.84;43.73
66486;BME280;53303;47.476;8.084;2023-04-30T12:36:38;95245.50;;;21.78;43.48
66486;BME280;53303;47.476;8.084;2023-04-30T12:39:08;95236.69;;;21.74;43.51
66486;BME280;53303;47.476;8.084;2023-04-30T12:41:36;95244.97;;;21.80;43.52
66486;BME280;53303;47.476;8.084;2023-04-30T12:44:24;95224.75;;;21.60;43.54
66486;BME280;53303;47.476;8.084;2023-04-30T12:46:51;95236.41;;;21.78;43.41
66486;BME280;53303;47.476;8.084;2023-04-30T12:49:25;95241.97;;;21.78;43.61
66486;BME280;53303;47.476;8.084;2023-04-30T12:51:51;95233.94;;;21.74;43.43
66486;BME280;53303;47.476;8.084;2023-04-30T12:54:28;95230.41;;;21.74;43.44
66486;BME280;53303;47.476;8.084;2023-04-30T12:56:58;95231.44;;;21.71;43.19
66486;BME280;53303;47.476;8.084;2023-04-30T12:59:26;95227.63;;;21.74;42.90
66486;BME280;53303;47.476;8.084;2023-04-30T13:01:52;95206.31;;;21.63;43.06
66486;BME280;53303;47.476;8.084;2023-04-30T13:04:23;95222.44;;;21.64;42.96
66486;BME280;53303;47.476;8.084;2023-04-30T13:06:48;95240.47;;;21.77;42.82
66486;BME280;53303;47.476;8.084;2023-04-30T13:09:13;95241.97;;;21.78;42.69
66486;BME280;53303;47.476;8.084;2023-04-30T13:11:41;95218.38;;;21.65;42.59
66486;BME280;53303;47.476;8.084;2023-04-30T13:14:09;95244.75;;;21.78;42.53
66486;BME280;53303;47.476;8.084;2023-04-30T13:16:40;95223.59;;;21.75;42.61
66486;BME280;53303;47.476;8.084;2023-04-30T13:19:08;95235.88;;;21.79;42.11
66486;BME280;53303;47.476;8.084;2023-04-30T13:21:36;95231.63;;;21.78;42.26
66486;BME280;53303;47.476;8.084;2023-04-30T13:24:01;95228.31;;;21.80;42.07
66486;BME280;53303;47.476;8.084;2023-04-30T13:26:27;95220.50;;;21.78;42.31
66486;BME280;53303;47.476;8.084;2023-04-30T13:28:54;95225.31;;;21.78;42.14
66486;BME280;53303;47.476;8.084;2023-04-30T13:31:19;95221.34;;;21.73;41.93
66486;BME280;53303;47.476;8.084;2023-04-30T13:33:46;95219.75;;;21.78;41.86
66486;BME280;53303;47.476;8.084;2023-04-30T13:36:19;95205.19;;;21.72;41.91
66486;BME280;53303;47.476;8.084;2023-04-30T13:38:45;95215.00;;;21.73;41.48
66486;BME280;53303;47.476;8.084;2023-04-30T13:41:11;95221.03;;;21.77;41.84
66486;BME280;53303;47.476;8.084;2023-04-30T13:43:36;95220.81;;;21.75;41.67